Аэропорт: Челябинск. Челябинск

ICAO: USCC

METAR:
2022-06-26 10:30:00
USCC 261030Z 31006MPS 9999 SCT040CB 15/08 Q1006 R27/290050 NOSIG RMK QFE734
METAR:
2022-06-26 08:00:00
TAF USCC 260800Z 2609/2709 31005G15MPS 9999 BKN030CB TEMPO 2609/2615 -SHRA